Time;durP1;ratioP1;P1;durP2;ratioP2;P2;SDS_P1;SDS_P2;PMS_P1;PMS_P2;Temp;Humidity;BMP_temperature;BMP_pressure;BME280_temperature;BME280_humidity;BME280_pressure;Samples;Min_cycle;Max_cycle;Signal;HPM_P1;HPM_P2
2021/01/13 00:02:20;;;;;;;;;;;;;;;;;;4352172;32;20112;-63
2021/01/13 00:04:46;;;;;;;31.75;21.40;;;;;;;;;;4360820;32;19983;-63
2021/01/13 00:07:12;;;;;;;;;;;;;;;;;;4361186;32;20163;-63
2021/01/13 00:09:38;;;;;;;29.37;19.70;;;;;;;;;;4348640;32;19988;-63
2021/01/13 00:12:04;;;;;;;27.50;19.10;;;;;;;;;;4377496;32;20086;-62
2021/01/13 00:14:30;;;;;;;22.05;15.50;;;;;;;;;;4349755;32;20121;-62
2021/01/13 00:16:56;;;;;;;;;;;;;;;;;;4362419;32;20507;-63
2021/01/13 00:19:21;;;;;;;23.83;15.63;;;;;;;;;;4337028;32;20377;-64
2021/01/13 00:21:50;;;;;;;;;;;;;;;;;;4362553;32;20496;-64
2021/01/13 00:24:16;;;;;;;19.58;12.93;;;;;;;;;;4348614;32;19997;-62
2021/01/13 00:26:43;;;;;;;23.87;12.95;;;;;;;;;;4372725;32;20081;-62
2021/01/13 00:29:10;;;;;;;20.88;12.93;;;;;;;;;;4348292;32;20072;-63
2021/01/13 00:31:37;;;;;;;23.62;14.45;;;;;;;;;;4347944;32;20097;-62
2021/01/13 00:34:02;;;;;;;;;;;;;;;;;;4351380;32;20073;-63
2021/01/13 00:36:28;;;;;;;21.73;14.43;;;;;;;;;;4375464;32;20396;-63
2021/01/13 00:38:54;;;;;;;;;;;;;;;;;;4350744;32;20105;-63
2021/01/13 00:41:20;;;;;;;25.37;16.48;;;;;;;;;;4374866;32;20371;-63
2021/01/13 00:43:48;;;;;;;31.87;19.77;;;;;;;;;;4362061;32;20094;-64
2021/01/13 00:46:14;;;;;;;29.15;19.40;;;;;;;;;;4362548;32;20171;-63
2021/01/13 00:48:40;;;;;;;;;;;;;;;;;;4389035;32;20077;-63
2021/01/13 00:51:05;;;;;;;31.45;22.83;;;;;;;;;;4375614;32;19977;-63
2021/01/13 00:53:31;;;;;;;;;;;;;;;;;;4362575;32;20085;-63
2021/01/13 00:55:57;;;;;;;35.92;23.50;;;;;;;;;;4374817;32;19973;-63
2021/01/13 00:58:23;;;;;;;;;;;;;;;;;;4362139;32;20572;-63
2021/01/13 01:00:50;;;;;;;32.90;22.48;;;;;;;;;;4368539;32;19964;-63
2021/01/13 01:03:16;;;;;;;32.75;21.00;;;;;;;;;;4352761;32;20090;-63
2021/01/13 01:05:42;;;;;;;34.03;20.75;;;;;;;;;;4324912;32;20086;-63
2021/01/13 01:08:08;;;;;;;;;;;;;;;;;;4337749;32;20078;-63
2021/01/13 01:10:34;;;;;;;31.42;21.12;;;;;;;;;;4338067;32;19962;-62
2021/01/13 01:12:59;;;;;;;;;;;;;;;;;;4349651;32;20444;-62
2021/01/13 01:15:25;;;;;;;27.85;18.15;;;;;;;;;;4350281;32;19965;-62
2021/01/13 01:17:51;;;;;;;;;;;;;;;;;;4350118;32;20086;-63
2021/01/13 01:20:17;;;;;;;26.12;16.20;;;;;;;;;;4363362;32;20077;-63
2021/01/13 01:22:52;;;;;;;;;;;;;;;;;;4337502;32;20079;-63
2021/01/13 01:25:18;;;;;;;26.10;16.52;;;;;;;;;;4349633;32;20444;-63
2021/01/13 01:27:43;;;;;;;;;;;;;;;;;;4349604;32;20083;-63
2021/01/13 01:30:09;;;;;;;29.70;18.77;;;;;;;;;;4349325;32;20356;-63
2021/01/13 01:32:35;;;;;;;25.65;16.40;;;;;;;;;;4326631;32;20153;-63
2021/01/13 01:35:01;;;;;;;;;;;;;;;;;;4349896;32;20224;-64
2021/01/13 01:37:26;;;;;;;27.27;16.23;;;;;;;;;;4349390;32;19993;-63
2021/01/13 01:39:52;;;;;;;;;;;;;;;;;;4337427;32;20143;-62
2021/01/13 01:42:18;;;;;;;24.65;17.10;;;;;;;;;;4336921;32;19984;-63
2021/01/13 01:44:43;;;;;;;;;;;;;;;;;;4349469;32;20105;-63
2021/01/13 01:47:09;;;;;;;22.70;14.32;;;;;;;;;;4349443;32;20477;-62
2021/01/13 01:49:35;;;;;;;;;;;;;;;;;;4349029;32;20071;-63
2021/01/13 01:52:30;;;;;;;19.92;11.75;;;;;;;;;;4349449;32;20433;-62
2021/01/13 01:54:55;;;;;;;19.98;13.68;;;;;;;;;;4333579;32;20086;-63
2021/01/13 01:57:23;;;;;;;;;;;;;;;;;;4349190;32;20075;-62
2021/01/13 01:59:51;;;;;;;21.20;14.25;;;;;;;;;;4337014;32;20090;-63
2021/01/13 02:02:17;;;;;;;22.77;14.02;;;;;;;;;;4336773;32;20146;-63
2021/01/13 02:04:43;;;;;;;;;;;;;;;;;;4324380;32;20175;-63
2021/01/13 02:07:09;;;;;;;27.13;14.93;;;;;;;;;;4361197;32;20000;-63
2021/01/13 02:09:34;;;;;;;;;;;;;;;;;;4363093;32;20483;-63
2021/01/13 02:12:00;;;;;;;34.50;20.40;;;;;;;;;;4360337;32;19982;-62
2021/01/13 02:14:29;;;;;;;;;;;;;;;;;;4336728;32;20082;-62
2021/01/13 02:16:56;;;;;;;32.50;20.30;;;;;;;;;;4361196;32;20375;-62
2021/01/13 02:19:47;;;;;;;28.75;17.58;;;;;;;;;;4336988;32;20098;-62
2021/01/13 02:22:17;;;;;;;26.70;15.65;;;;;;;;;;4362695;32;20074;-62
2021/01/13 02:25:01;;;;;;;21.85;14.23;;;;;;;;;;4349023;32;20077;-62
2021/01/13 02:28:12;;;;;;;21.87;14.30;;;;;;;;;;4362666;32;20527;-62
2021/01/13 02:31:04;;;;;;;25.73;18.05;;;;;;;;;;4349501;32;20070;-62
2021/01/13 02:33:37;;;;;;;23.83;16.58;;;;;;;;;;4325403;32;20093;-62
2021/01/13 02:36:07;;;;;;;20.80;14.05;;;;;;;;;;4336680;32;20082;-63
2021/01/13 02:38:32;;;;;;;26.12;14.65;;;;;;;;;;4348694;32;20067;-62
2021/01/13 02:40:58;;;;;;;;;;;;;;;;;;4336788;32;20071;-62
2021/01/13 02:43:24;;;;;;;28.70;14.90;;;;;;;;;;4336312;32;19973;-62
2021/01/13 02:45:49;;;;;;;;;;;;;;;;;;4336243;32;20074;-62
2021/01/13 02:48:19;;;;;;;33.70;15.85;;;;;;;;;;4347520;32;19977;-63
2021/01/13 02:50:51;;;;;;;27.10;14.60;;;;;;;;;;4336461;32;20070;-62
2021/01/13 02:53:36;;;;;;;25.05;14.20;;;;;;;;;;4324575;32;20501;-63
2021/01/13 02:56:07;;;;;;;25.23;13.15;;;;;;;;;;4336491;32;20066;-62
2021/01/13 02:58:36;;;;;;;23.33;13.32;;;;;;;;;;4323785;32;20066;-63
2021/01/13 03:01:09;;;;;;;26.42;14.57;;;;;;;;;;4336009;32;20093;-62
2021/01/13 03:03:35;;;;;;;25.00;13.38;;;;;;;;;;4323405;32;20456;-63
2021/01/13 03:06:06;;;;;;;24.10;15.88;;;;;;;;;;4331472;32;20171;-62
2021/01/13 03:08:38;;;;;;;24.67;13.98;;;;;;;;;;4324038;32;20065;-62
2021/01/13 03:11:04;;;;;;;23.35;15.27;;;;;;;;;;4335912;32;20066;-63
2021/01/13 03:13:31;;;;;;;;;;;;;;;;;;4323977;32;20179;-63
2021/01/13 03:15:57;;;;;;;25.80;16.70;;;;;;;;;;4322957;32;19970;-62
2021/01/13 03:18:32;;;;;;;;;;;;;;;;;;4336178;32;20098;-62
2021/01/13 03:21:12;;;;;;;26.40;16.90;;;;;;;;;;4347954;32;19965;-62
2021/01/13 03:23:45;;;;;;;23.17;14.65;;;;;;;;;;4323535;32;20085;-62
2021/01/13 03:26:12;;;;;;;25.80;17.35;;;;;;;;;;4335128;32;20078;-62
2021/01/13 03:28:38;;;;;;;25.20;15.93;;;;;;;;;;4311010;32;20067;-64
2021/01/13 03:31:04;;;;;;;;;;;;;;;;;;4323834;32;20074;-62
2021/01/13 03:34:18;;;;;;;29.83;21.05;;;;;;;;;;4335393;32;19977;-62
2021/01/13 03:36:55;;;;;;;27.58;19.30;;;;;;;;;;4321766;32;20074;-63
2021/01/13 03:39:22;;;;;;;24.83;16.40;;;;;;;;;;4347749;32;20098;-63
2021/01/13 03:41:59;;;;;;;28.05;14.95;;;;;;;;;;4323497;32;20086;-62
2021/01/13 03:44:29;;;;;;;25.08;14.02;;;;;;;;;;4326564;32;20063;-64
2021/01/13 03:46:55;;;;;;;25.60;14.93;;;;;;;;;;4360798;32;20493;-63
2021/01/13 03:49:36;;;;;;;26.80;17.90;;;;;;;;;;4335464;32;20240;-63
2021/01/13 03:52:07;;;;;;;28.20;18.27;;;;;;;;;;4348167;32;20236;-63
2021/01/13 03:54:36;;;;;;;33.90;22.95;;;;;;;;;;4335582;32;20094;-63
2021/01/13 03:57:06;;;;;;;35.80;25.35;;;;;;;;;;4347875;32;20090;-62
2021/01/13 04:00:12;;;;;;;34.35;22.42;;;;;;;;;;4347425;32;20081;-63
2021/01/13 04:02:59;;;;;;;33.42;22.65;;;;;;;;;;4359353;32;20530;-63
2021/01/13 04:05:29;;;;;;;35.35;21.62;;;;;;;;;;4369005;32;20146;-63
2021/01/13 04:07:55;;;;;;;37.60;23.50;;;;;;;;;;4323692;32;20093;-63
2021/01/13 04:10:21;;;;;;;;;;;;;;;;;;4342895;32;20472;-63
2021/01/13 04:13:12;;;;;;;43.30;25.80;;;;;;;;;;4372578;32;19974;-63
2021/01/13 04:15:38;;;;;;;33.53;20.85;;;;;;;;;;4372716;32;20067;-63
2021/01/13 04:18:06;;;;;;;33.65;20.00;;;;;;;;;;4357688;32;20075;-64
2021/01/13 04:20:32;;;;;;;32.28;22.02;;;;;;;;;;4330944;32;20142;-64
2021/01/13 04:22:58;;;;;;;30.88;19.48;;;;;;;;;;4344549;32;20066;-64
2021/01/13 04:25:23;;;;;;;;;;;;;;;;;;4348450;32;20085;-63
2021/01/13 04:27:49;;;;;;;27.02;15.57;;;;;;;;;;4353522;32;19989;-65
2021/01/13 04:30:15;;;;;;;;;;;;;;;;;;4338319;32;20162;-63
2021/01/13 04:32:42;;;;;;;23.20;13.80;;;;;;;;;;4337550;32;19992;-63
2021/01/13 04:35:08;;;;;;;25.02;16.05;;;;;;;;;;4335822;32;20114;-63
2021/01/13 04:37:34;;;;;;;25.75;14.05;;;;;;;;;;4326213;32;20169;-63
2021/01/13 04:40:02;;;;;;;;;;;;;;;;;;4350910;32;20484;-65
2021/01/13 04:42:31;;;;;;;20.58;13.93;;;;;;;;;;4362867;32;19992;-62
2021/01/13 04:45:06;;;;;;;27.95;15.93;;;;;;;;;;4350065;32;20112;-63
2021/01/13 04:47:50;;;;;;;27.37;15.57;;;;;;;;;;4337836;32;20145;-63
2021/01/13 04:50:20;;;;;;;24.55;13.43;;;;;;;;;;4349936;32;20082;-64
2021/01/13 04:52:47;;;;;;;26.02;15.68;;;;;;;;;;4350028;32;20149;-64
2021/01/13 04:55:21;;;;;;;33.42;19.70;;;;;;;;;;4349991;32;20075;-63
2021/01/13 04:57:57;;;;;;;39.28;22.13;;;;;;;;;;4349860;32;20469;-63
2021/01/13 05:00:48;;;;;;;53.80;30.17;;;;;;;;;;4337789;32;20071;-62
2021/01/13 05:03:30;;;;;;;74.12;37.85;;;;;;;;;;4363599;32;20125;-63
2021/01/13 05:06:15;;;;;;;77.35;38.42;;;;;;;;;;4325618;32;20086;-63
2021/01/13 05:08:41;;;;;;;73.85;36.92;;;;;;;;;;4338445;32;20161;-63
2021/01/13 05:11:10;;;;;;;;;;;;;;;;;;4326029;32;20460;-62
2021/01/13 05:13:36;;;;;;;65.20;30.67;;;;;;;;;;4349981;32;19985;-63
2021/01/13 05:16:07;;;;;;;;;;;;;;;;;;4350225;32;20433;-63
2021/01/13 05:20:05;;;;;;;44.43;20.07;;;;;;;;;;3857290;37;20070;-63
2021/01/13 05:22:32;;;;;;;65.55;28.40;;;;;;;;;;4419008;32;20085;-63
2021/01/13 05:25:01;;;;;;;59.35;28.62;;;;;;;;;;4393378;32;20077;-62
2021/01/13 05:27:30;;;;;;;47.38;31.77;;;;;;;;;;4387268;32;20071;-62
2021/01/13 05:29:59;;;;;;;33.13;17.02;;;;;;;;;;4406710;32;20070;-61
2021/01/13 05:32:27;;;;;;;91.32;35.03;;;;;;;;;;4405710;32;20108;-62
2021/01/13 05:34:56;;;;;;;64.18;26.98;;;;;;;;;;4376446;32;20154;-63
2021/01/13 05:37:49;;;;;;;51.92;22.60;;;;;;;;;;4381804;32;20069;-62
2021/01/13 05:40:18;;;;;;;41.58;22.80;;;;;;;;;;4401498;32;20093;-62
2021/01/13 05:42:45;;;;;;;40.80;20.35;;;;;;;;;;4402832;32;20069;-62
2021/01/13 05:45:14;;;;;;;38.30;20.02;;;;;;;;;;4392016;32;20112;-62
2021/01/13 05:47:53;;;;;;;45.45;22.25;;;;;;;;;;4389720;32;20068;-63
2021/01/13 05:50:23;;;;;;;73.55;31.37;;;;;;;;;;4397741;32;20094;-63
2021/01/13 05:52:50;;;;;;;54.60;25.52;;;;;;;;;;4391871;32;20114;-62
2021/01/13 05:55:20;;;;;;;63.40;29.63;;;;;;;;;;4404203;32;20089;-62
2021/01/13 05:57:56;;;;;;;48.05;21.50;;;;;;;;;;4402076;32;20061;-62
2021/01/13 06:00:30;;;;;;;37.03;19.27;;;;;;;;;;4392065;32;20517;-62
2021/01/13 06:02:58;;;;;;;40.22;21.55;;;;;;;;;;4387726;32;20078;-62
2021/01/13 06:05:25;;;;;;;36.78;21.27;;;;;;;;;;4368940;32;20160;-62
2021/01/13 06:07:52;;;;;;;47.13;23.92;;;;;;;;;;4402594;32;20444;-62
2021/01/13 06:10:25;;;;;;;47.22;26.90;;;;;;;;;;4402428;32;20150;-62
2021/01/13 06:12:50;;;;;;;53.83;27.75;;;;;;;;;;4402538;32;20555;-62
2021/01/13 06:15:22;;;;;;;;;;;;;;;;;;4394939;32;20132;-62
2021/01/13 06:17:52;;;;;;;62.17;30.12;;;;;;;;;;4388712;32;19954;-62
2021/01/13 06:20:19;;;;;;;66.05;32.38;;;;;;;;;;4375272;32;20069;-62
2021/01/13 06:22:47;;;;;;;66.53;31.35;;;;;;;;;;4376200;32;20082;-62
2021/01/13 06:25:13;;;;;;;60.58;30.90;;;;;;;;;;4400227;32;20498;-62
2021/01/13 06:27:39;;;;;;;57.33;29.30;;;;;;;;;;4401325;32;20081;-62
2021/01/13 06:30:04;;;;;;;;;;;;;;;;;;4398709;32;20451;-62
2021/01/13 06:32:32;;;;;;;54.95;28.85;;;;;;;;;;4389295;32;19977;-64
2021/01/13 06:35:21;;;;;;;56.22;28.75;;;;;;;;;;4373284;32;20120;-66
2021/01/13 06:37:48;;;;;;;53.58;27.40;;;;;;;;;;4382952;32;20081;-66
2021/01/13 06:40:16;;;;;;;49.83;28.58;;;;;;;;;;4375014;32;20078;-61
2021/01/13 06:42:42;;;;;;;52.55;25.77;;;;;;;;;;4370877;32;20073;-61
2021/01/13 06:45:08;;;;;;;;;;;;;;;;;;4379427;32;20484;-62
2021/01/13 06:47:34;;;;;;;48.58;25.88;;;;;;;;;;4386113;32;19988;-62
2021/01/13 06:50:00;;;;;;;;;;;;;;;;;;4387705;32;20445;-61
2021/01/13 06:52:32;;;;;;;53.13;28.15;;;;;;;;;;4376560;32;20147;-62
2021/01/13 06:54:59;;;;;;;50.35;28.30;;;;;;;;;;4380059;32;20169;-62
2021/01/13 06:57:26;;;;;;;51.17;28.27;;;;;;;;;;4376439;32;20067;-62
2021/01/13 06:59:52;;;;;;;47.60;28.48;;;;;;;;;;4363415;32;20077;-64
2021/01/13 07:02:27;;;;;;;;;;;;;;;;;;4373673;32;20085;-62
2021/01/13 07:04:53;;;;;;;41.90;26.95;;;;;;;;;;4391000;32;19972;-62
2021/01/13 07:07:18;;;;;;;;;;;;;;;;;;4385494;32;20538;-63
2021/01/13 07:09:45;;;;;;;56.78;30.25;;;;;;;;;;4382594;32;19976;-62
2021/01/13 07:12:15;;;;;;;53.15;29.52;;;;;;;;;;4375885;32;20058;-62
2021/01/13 07:14:42;;;;;;;52.33;32.05;;;;;;;;;;4378652;32;20074;-62
2021/01/13 07:17:18;;;;;;;59.83;34.53;;;;;;;;;;4378582;32;20505;-63
2021/01/13 07:19:46;;;;;;;66.82;35.10;;;;;;;;;;4378818;32;20232;-64
2021/01/13 07:22:13;;;;;;;64.07;37.25;;;;;;;;;;4391994;32;20061;-61
2021/01/13 07:24:39;;;;;;;56.72;35.65;;;;;;;;;;4380056;32;20081;-62
2021/01/13 07:27:04;;;;;;;;;;;;;;;;;;4378577;32;20070;-63
2021/01/13 07:29:30;;;;;;;57.42;33.30;;;;;;;;;;4375315;32;20468;-61
2021/01/13 07:31:57;;;;;;;51.65;29.67;;;;;;;;;;4377270;32;20080;-63
2021/01/13 07:34:31;;;;;;;46.97;29.83;;;;;;;;;;4388941;32;20231;-63
2021/01/13 07:36:59;;;;;;;49.63;31.20;;;;;;;;;;4353109;32;20076;-62
2021/01/13 07:39:54;;;;;;;53.22;33.45;;;;;;;;;;4390818;32;20078;-63
2021/01/13 07:42:39;;;;;;;48.80;31.10;;;;;;;;;;4375251;32;20066;-63
2021/01/13 07:45:12;;;;;;;50.95;30.65;;;;;;;;;;4376236;32;20065;-62
2021/01/13 07:47:56;;;;;;;52.65;31.62;;;;;;;;;;4385320;32;20101;-63
2021/01/13 07:50:22;;;;;;;51.78;32.33;;;;;;;;;;4377350;32;20093;-63
2021/01/13 07:52:49;;;;;;;53.78;32.83;;;;;;;;;;4354040;32;20174;-63
2021/01/13 07:55:20;;;;;;;63.42;37.78;;;;;;;;;;4386219;32;20545;-62
2021/01/13 07:57:55;;;;;;;59.75;37.67;;;;;;;;;;4377861;32;20499;-62
2021/01/13 08:00:24;;;;;;;65.85;40.38;;;;;;;;;;4391307;32;20078;-62
2021/01/13 08:03:15;;;;;;;65.55;39.58;;;;;;;;;;4378148;32;20106;-64
2021/01/13 08:05:40;;;;;;;56.22;35.80;;;;;;;;;;4388062;32;20077;-62
2021/01/13 08:08:07;;;;;;;;;;;;;;;;;;4385904;32;20242;-61
2021/01/13 08:10:40;;;;;;;61.30;36.67;;;;;;;;;;4375960;32;20080;-63
2021/01/13 08:13:39;;;;;;;56.22;33.55;;;;;;;;;;4369773;32;20077;-65
2021/01/13 08:16:14;;;;;;;42.60;27.05;;;;;;;;;;4362586;32;20074;-62
2021/01/13 08:19:11;;;;;;;36.97;22.95;;;;;;;;;;4386508;32;20086;-64
2021/01/13 08:24:06;;;;;;;49.30;28.55;;;;;;;;;;4382980;32;20157;-62
2021/01/13 08:26:33;;;;;;;57.22;33.72;;;;;;;;;;4385163;32;20150;-62
2021/01/13 08:29:01;;;;;;;58.38;35.10;;;;;;;;;;4364790;32;20467;-61
2021/01/13 08:31:27;;;;;;;49.80;32.35;;;;;;;;;;4375033;32;20081;-63
2021/01/13 08:34:09;;;;;;;38.95;25.85;;;;;;;;;;4381280;32;20151;-62
2021/01/13 08:36:35;;;;;;;35.78;22.90;;;;;;;;;;4379688;32;20072;-63
2021/01/13 08:39:09;;;;;;;33.33;21.12;;;;;;;;;;4388958;32;20093;-62
2021/01/13 08:41:35;;;;;;;34.83;18.73;;;;;;;;;;4378496;32;20142;-62
2021/01/13 08:44:02;;;;;;;31.58;18.15;;;;;;;;;;4390014;32;20073;-63
2021/01/13 08:46:46;;;;;;;29.27;17.05;;;;;;;;;;4377697;32;20156;-62
2021/01/13 08:49:25;;;;;;;26.83;16.37;;;;;;;;;;4390006;32;20057;-63
2021/01/13 08:52:16;;;;;;;25.35;14.60;;;;;;;;;;4377864;32;20592;-63
2021/01/13 08:55:05;;;;;;;28.08;16.45;;;;;;;;;;4373745;32;20074;-63
2021/01/13 08:58:09;;;;;;;35.15;21.12;;;;;;;;;;4378030;32;20527;-62
2021/01/13 09:00:36;;;;;;;32.25;20.02;;;;;;;;;;4319914;33;20086;-63
2021/01/13 09:03:06;;;;;;;30.73;18.77;;;;;;;;;;4385308;32;20085;-62
2021/01/13 09:05:35;;;;;;;27.40;15.32;;;;;;;;;;4362268;32;20428;-62
2021/01/13 09:08:02;;;;;;;;;;;;;;;;;;4386012;32;20533;-62
2021/01/13 09:10:45;;;;;;;;;;;;;;;;;;4393853;32;19963;-64
2021/01/13 09:13:39;;;;;;;31.15;19.35;;;;;;;;;;4386818;32;20040;-62
2021/01/13 09:16:24;;;;;;;30.05;19.75;;;;;;;;;;4401365;32;20062;-62
2021/01/13 09:18:56;;;;;;;30.00;18.30;;;;;;;;;;4383693;32;20181;-62
2021/01/13 09:21:28;;;;;;;29.85;18.62;;;;;;;;;;4385598;32;20086;-63
2021/01/13 09:23:55;;;;;;;33.10;20.73;;;;;;;;;;4383969;32;20081;-63
2021/01/13 09:26:23;;;;;;;31.33;23.25;;;;;;;;;;4372530;32;20072;-63
2021/01/13 09:29:00;;;;;;;24.37;16.20;;;;;;;;;;4358164;32;20113;-64
2021/01/13 09:31:26;;;;;;;29.25;18.92;;;;;;;;;;4364806;32;20141;-62
2021/01/13 09:33:52;;;;;;;;;;;;;;;;;;4374508;32;20543;-63
2021/01/13 09:36:19;;;;;;;24.37;11.77;;;;;;;;;;4362700;32;19968;-61
2021/01/13 09:38:44;;;;;;;26.02;16.30;;;;;;;;;;4386046;32;20066;-63
2021/01/13 09:41:17;;;;;;;;;;;;;;;;;;4360082;32;20082;-62
2021/01/13 09:43:44;;;;;;;22.92;15.55;;;;;;;;;;4364573;32;19969;-63
2021/01/13 09:46:23;;;;;;;24.92;16.35;;;;;;;;;;4387568;32;20464;-63
2021/01/13 09:49:05;;;;;;;25.80;16.02;;;;;;;;;;4390596;32;20564;-63
2021/01/13 09:51:31;;;;;;;24.55;15.70;;;;;;;;;;4391036;32;20078;-61
2021/01/13 09:53:58;;;;;;;24.45;15.05;;;;;;;;;;4376545;32;20083;-62
2021/01/13 09:56:25;;;;;;;25.12;15.05;;;;;;;;;;4362238;32;20074;-62
2021/01/13 09:58:53;;;;;;;24.92;15.40;;;;;;;;;;4377402;32;20108;-62
2021/01/13 10:01:30;;;;;;;22.45;13.65;;;;;;;;;;4374628;32;20078;-62
2021/01/13 10:03:57;;;;;;;26.55;14.93;;;;;;;;;;4385851;32;20146;-63
2021/01/13 10:06:27;;;;;;;26.65;15.60;;;;;;;;;;4378884;32;20074;-62
2021/01/13 10:08:54;;;;;;;26.80;16.40;;;;;;;;;;4375642;32;20156;-61
2021/01/13 10:11:20;;;;;;;26.52;16.52;;;;;;;;;;4343187;32;20160;-62
2021/01/13 10:13:49;;;;;;;;;;;;;;;;;;4377482;32;20086;-61
2021/01/13 10:16:14;;;;;;;29.05;18.98;;;;;;;;;;4384660;32;19984;-62
2021/01/13 10:18:47;;;;;;;;;;;;;;;;;;4393064;32;20493;-64
2021/01/13 10:21:13;;;;;;;31.87;20.58;;;;;;;;;;4366480;32;19982;-63
2021/01/13 10:23:38;;;;;;;;;;;;;;;;;;4378336;32;20085;-64
2021/01/13 10:26:07;;;;;;;29.98;19.20;;;;;;;;;;4377596;32;19989;-62
2021/01/13 10:28:34;;;;;;;27.90;18.40;;;;;;;;;;4365259;32;20062;-63
2021/01/13 10:31:04;;;;;;;26.50;17.30;;;;;;;;;;4378892;32;20089;-63
2021/01/13 10:33:47;;;;;;;29.87;18.98;;;;;;;;;;4375439;32;20082;-62
2021/01/13 10:36:42;;;;;;;26.12;17.55;;;;;;;;;;4381011;32;20100;-65
2021/01/13 10:39:08;;;;;;;26.27;18.10;;;;;;;;;;4380080;32;20162;-63
2021/01/13 10:41:44;;;;;;;28.00;16.37;;;;;;;;;;4393974;32;20059;-63
2021/01/13 10:44:28;;;;;;;55.15;23.52;;;;;;;;;;4379674;32;20086;-63
2021/01/13 10:46:54;;;;;;;53.05;28.52;;;;;;;;;;4354727;32;20086;-62
2021/01/13 10:49:21;;;;;;;;;;;;;;;;;;4385625;32;20089;-63
2021/01/13 10:51:49;;;;;;;48.20;27.23;;;;;;;;;;4376395;32;19981;-63
2021/01/13 10:54:25;;;;;;;47.95;25.42;;;;;;;;;;4378974;32;20080;-63
2021/01/13 10:56:53;;;;;;;42.33;23.30;;;;;;;;;;4392213;32;20089;-63
2021/01/13 10:59:19;;;;;;;39.05;23.08;;;;;;;;;;4378352;32;20074;-64
2021/01/13 11:01:45;;;;;;;;;;;;;;;;;;4385911;32;20085;-63
2021/01/13 11:04:28;;;;;;;40.38;23.85;;;;;;;;;;4390894;32;20016;-64
2021/01/13 11:06:58;;;;;;;34.42;19.33;;;;;;;;;;4349227;32;20185;-63
2021/01/13 11:09:24;;;;;;;28.40;18.30;;;;;;;;;;4377698;32;20240;-64
2021/01/13 11:11:51;;;;;;;25.20;16.77;;;;;;;;;;4378753;32;20078;-64
2021/01/13 11:14:27;;;;;;;29.77;17.27;;;;;;;;;;4391295;32;20065;-66
2021/01/13 11:17:03;;;;;;;23.27;12.88;;;;;;;;;;4365481;32;20487;-64
2021/01/13 11:19:29;;;;;;;17.10;10.25;;;;;;;;;;4385404;32;20574;-64
2021/01/13 11:21:55;;;;;;;;;;;;;;;;;;4380391;32;20208;-63
2021/01/13 11:24:35;;;;;;;24.90;13.68;;;;;;;;;;4383555;32;19969;-65
2021/01/13 11:27:07;;;;;;;25.60;15.55;;;;;;;;;;4363942;32;20081;-64
2021/01/13 11:29:35;;;;;;;26.45;16.00;;;;;;;;;;4373086;32;20154;-63
2021/01/13 11:32:02;;;;;;;22.75;14.57;;;;;;;;;;4365528;32;20113;-62
2021/01/13 11:34:28;;;;;;;24.77;14.95;;;;;;;;;;4389806;32;20088;-62
2021/01/13 11:37:12;;;;;;;;;;;;;;;;;;4378445;32;20150;-62
2021/01/13 11:39:49;;;;;;;22.25;14.05;;;;;;;;;;4390345;32;20027;-63
2021/01/13 11:42:37;;;;;;;24.45;15.63;;;;;;;;;;4361842;32;20105;-62
2021/01/13 11:45:16;;;;;;;26.80;14.95;;;;;;;;;;4387277;32;20096;-63
2021/01/13 11:47:44;;;;;;;25.40;16.45;;;;;;;;;;4363694;32;20146;-64
2021/01/13 11:50:15;;;;;;;28.67;17.70;;;;;;;;;;4377767;32;20101;-63
2021/01/13 11:52:44;;;;;;;26.70;18.48;;;;;;;;;;4378215;32;20081;-62
2021/01/13 11:55:10;;;;;;;26.30;18.80;;;;;;;;;;4377983;32;20452;-66
2021/01/13 11:57:36;;;;;;;29.27;18.77;;;;;;;;;;4390746;32;20058;-62
2021/01/13 12:00:15;;;;;;;;;;;;;;;;;;4377823;32;20055;-62
2021/01/13 12:02:41;;;;;;;32.40;19.55;;;;;;;;;;4384741;32;19973;-62
2021/01/13 12:05:07;;;;;;;35.10;19.45;;;;;;;;;;4374644;32;20559;-63
2021/01/13 12:07:33;;;;;;;32.92;20.52;;;;;;;;;;4350254;32;20165;-62
2021/01/13 12:10:09;;;;;;;;;;;;;;;;;;4361091;32;20144;-62
2021/01/13 12:12:34;;;;;;;34.10;19.65;;;;;;;;;;4389782;32;20064;-62
2021/01/13 12:15:07;;;;;;;;;;;;;;;;;;4365374;32;20073;-64
2021/01/13 12:17:33;;;;;;;31.98;19.30;;;;;;;;;;4388413;32;19965;-62
2021/01/13 12:20:01;;;;;;;33.40;20.88;;;;;;;;;;4380161;32;20489;-63
2021/01/13 12:22:36;;;;;;;30.90;16.75;;;;;;;;;;4351737;32;20075;-64
2021/01/13 12:25:04;;;;;;;33.05;19.55;;;;;;;;;;4375475;32;20081;-66
2021/01/13 12:27:30;;;;;;;29.83;18.65;;;;;;;;;;4374893;32;20089;-62
2021/01/13 12:30:05;;;;;;;;;;;;;;;;;;4380345;32;20077;-63
2021/01/13 12:32:32;;;;;;;31.65;20.25;;;;;;;;;;4376729;32;19996;-63
2021/01/13 12:34:58;;;;;;;34.25;20.85;;;;;;;;;;4364513;32;20074;-63
2021/01/13 12:37:23;;;;;;;;;;;;;;;;;;4364864;32;20093;-63
2021/01/13 12:39:54;;;;;;;;;;;;;;;;;;4391946;32;20479;-63
2021/01/13 12:42:20;;;;;;;;;;;;;;;;;;4389604;32;19976;-65
2021/01/13 12:44:45;;;;;;;;;;;;;;;;;;4384442;32;19961;-64
2021/01/13 12:47:11;;;;;;;;;;;;;;;;;;4376887;32;20047;-65
2021/01/13 12:49:37;;;;;;;;;;;;;;;;;;4388685;32;19989;-63
2021/01/13 12:52:03;;;;;;;;;;;;;;;;;;4377554;32;20009;-65
2021/01/13 12:54:28;;;;;;;;;;;;;;;;;;4384064;32;19965;-64
2021/01/13 12:56:54;;;;;;;;;;;;;;;;;;4377298;32;20000;-64
2021/01/13 12:59:20;;;;;;;;;;;;;;;;;;4384574;32;19977;-63
2021/01/13 13:01:46;;;;;;;;;;;;;;;;;;4368426;32;19988;-62
2021/01/13 13:04:12;;;;;;;;;;;;;;;;;;4370712;32;19988;-62
2021/01/13 13:06:38;;;;;;;;;;;;;;;;;;4388830;32;20403;-63
2021/01/13 13:09:04;;;;;;;;;;;;;;;;;;4378467;32;20375;-63
2021/01/13 13:11:30;;;;;;;;;;;;;;;;;;4374586;32;20079;-64
2021/01/13 13:13:56;;;;;;;;;;;;;;;;;;4386840;32;19962;-64
2021/01/13 13:16:22;;;;;;;;;;;;;;;;;;4389459;32;20047;-65
2021/01/13 13:18:48;;;;;;;;;;;;;;;;;;4389257;32;19973;-64
2021/01/13 13:21:14;;;;;;;;;;;;;;;;;;4374478;32;19982;-64
2021/01/13 13:23:40;;;;;;;;;;;;;;;;;;4389679;32;19972;-63
2021/01/13 13:26:07;;;;;;;;;;;;;;;;;;4379540;32;19974;-64
2021/01/13 13:28:32;;;;;;;;;;;;;;;;;;4361996;32;20095;-65
2021/01/13 13:30:58;;;;;;;;;;;;;;;;;;4398971;32;19981;-63
2021/01/13 13:33:24;;;;;;;;;;;;;;;;;;4384290;32;19973;-63
2021/01/13 13:35:49;;;;;;;;;;;;;;;;;;4376233;32;19969;-64
2021/01/13 13:38:15;;;;;;;;;;;;;;;;;;4374943;32;19969;-66
2021/01/13 13:40:40;;;;;;;;;;;;;;;;;;4392606;32;19980;-63
2021/01/13 13:43:06;;;;;;;;;;;;;;;;;;4379210;32;19969;-62
2021/01/13 13:45:32;;;;;;;;;;;;;;;;;;4391791;32;20336;-63
2021/01/13 13:47:57;;;;;;;;;;;;;;;;;;4384686;32;19995;-62
2021/01/13 13:50:23;;;;;;;;;;;;;;;;;;4389025;32;19969;-62
2021/01/13 13:52:48;;;;;;;;;;;;;;;;;;4393080;32;19985;-62
2021/01/13 13:55:14;;;;;;;;;;;;;;;;;;4394345;32;20076;-62
2021/01/13 13:57:40;;;;;;;;;;;;;;;;;;4402749;32;20477;-62
2021/01/13 14:00:05;;;;;;;;;;;;;;;;;;4383661;32;19988;-62
2021/01/13 14:02:31;;;;;;;;;;;;;;;;;;4386297;32;20040;-64
2021/01/13 14:04:57;;;;;;;;;;;;;;;;;;4399047;32;20323;-63
2021/01/13 14:07:22;;;;;;;;;;;;;;;;;;4389998;32;20029;-63
2021/01/13 14:09:48;;;;;;;;;;;;;;;;;;4368171;32;19989;-63
2021/01/13 14:12:13;;;;;;;;;;;;;;;;;;4391608;32;19985;-63
2021/01/13 14:14:39;;;;;;;;;;;;;;;;;;4377193;32;19973;-63
2021/01/13 14:17:05;;;;;;;;;;;;;;;;;;4377495;32;19980;-64
2021/01/13 14:19:30;;;;;;;;;;;;;;;;;;4377088;32;19974;-62
2021/01/13 14:21:56;;;;;;;;;;;;;;;;;;4392975;32;20428;-63
2021/01/13 14:24:22;;;;;;;;;;;;;;;;;;4392599;32;20089;-63
2021/01/13 14:26:47;;;;;;;;;;;;;;;;;;4382442;32;20036;-63
2021/01/13 14:29:13;;;;;;;;;;;;;;;;;;4380055;32;19980;-63
2021/01/13 14:31:38;;;;;;;;;;;;;;;;;;4377441;32;19966;-63
2021/01/13 14:34:04;;;;;;;;;;;;;;;;;;4377328;32;20445;-63
2021/01/13 14:36:30;;;;;;;;;;;;;;;;;;4386178;32;19969;-63
2021/01/13 14:38:55;;;;;;;;;;;;;;;;;;4378582;32;20127;-62
2021/01/13 14:41:30;;;;;;;;;;;;;;;;;;4393159;32;19992;-63
2021/01/13 14:43:56;;;;;;;;;;;;;;;;;;4380161;32;20354;-63
2021/01/13 14:46:22;;;;;;;;;;;;;;;;;;4369858;32;20435;-63
2021/01/13 14:48:47;;;;;;;;;;;;;;;;;;4384893;32;19980;-63
2021/01/13 14:51:13;;;;;;;;;;;;;;;;;;4386068;32;19992;-63
2021/01/13 14:53:38;;;;;;;;;;;;;;;;;;4393416;32;19973;-63
2021/01/13 14:56:04;;;;;;;;;;;;;;;;;;4391049;32;20043;-63
2021/01/13 14:58:32;;;;;;;;;;;;;;;;;;4378313;32;19984;-62
2021/01/13 15:00:57;;;;;;;;;;;;;;;;;;4373762;32;19961;-63
2021/01/13 15:03:23;;;;;;;;;;;;;;;;;;4386232;32;20060;-64
2021/01/13 15:05:48;;;;;;;;;;;;;;;;;;4390806;32;19985;-63
2021/01/13 15:08:14;;;;;;;;;;;;;;;;;;4393118;32;19984;-62
2021/01/13 15:10:39;;;;;;;;;;;;;;;;;;4389391;32;20040;-64
2021/01/13 15:13:05;;;;;;;;;;;;;;;;;;4377583;32;19981;-63
2021/01/13 15:15:31;;;;;;;;;;;;;;;;;;4389481;32;19975;-63
2021/01/13 15:17:56;;;;;;;;;;;;;;;;;;4388571;32;19984;-64
2021/01/13 15:20:22;;;;;;;;;;;;;;;;;;4392800;32;19980;-62
2021/01/13 15:22:47;;;;;;;;;;;;;;;;;;4392313;32;19961;-62
2021/01/13 15:25:15;;;;;;;;;;;;;;;;;;4380259;32;20004;-65